Anchor, Texas
Current Conditions -  °F | °C
As of 2:53 PM on Friday 24 Oct 2014 (Local Time) from KLBX Reporting Station
Clear Clear  
Wind Chill: 79°   Ceiling: Unl
Heat Index: 79°   Visibility: 10mi
Dew Point: 50°   Wind: 6mph
Humidity: 36%   Direction: 10°N
Pressure: 30.09"   Gusts: NA
Location:  29.1898°N, 95.4754°W
Report Text: KLBX 241953Z AUTO 01005KT 10SM CLR 26/10 A3009 RMK AO2 SLP189 T02610100
Loading
Personal Weather Stations






























Interactive Weather Map
Tropical Storm Tracking
New forecast layout! Learn more

10-Day Weather Forecast

Advertisements
Track Severe Weather on mobile